Pagrindinis puslapis
METAR-TAF:

METAR-TAF

Oro uostai :

Kalmaras, Švedija

platuma: 56-44N, ilguma: 016-18E, Aukštis: 16 m

Dabartinis oras

Ataskaita buvo paskelbta 44 minutes, ne 11:20 UTC
Vėjas 7 kt iš Šiaurės/Šiaurės Vakarų
Temperatūra 1°C
Drėgmė 86%
Slėgis 1029 hPa
Matomumas 10 km arba daugiau
Mažai debesys ne aukštis 2500 ft

METAR: ESMQ 271120Z 34007KT 9999 FEW025 01/M01 Q1029

Laikas: 13:04 (12:04 UTC)

Prognozė

Ataskaita buvo paskelbta 34 minutes, ne 11:30 UTC
Prognozė galioja nuo 27 metu 12 UTC su 27 metu 20 UTC
Vėjas 7 kt iš Šiaurės/Šiaurės Vakarų
Matomumas 10 km arba daugiau
Išsisklaidę debesys ne aukštis 2000 ft

TAF: ESMQ 271130Z 2712/2720 33007KT 9999 SCT020

Orai ataskaitas ir orų prognozės (METAR, TAF).

turimą stotys yra geltonos ir raudonos taškus žemėlapyje.

Perkelti pele per norėdami pamatyti stoties vardą.

Tada spustelėkite, norėdami matyti oro stebėjimo ir prognozės.

Norėdami pakeisti žemėlapį: spustelėkite ant žalios mygtukų su juodo kryžiaus žemyn,; žalią mygtuką su brūkšneliu, jei norite nutolinti; arba žalių rodyklių gretimoms žemėlapius.


METAR-TAF: